sensor_id;sensor_type;location;lat;lon;timestamp;temperature;humidity
41985;DHT22;28319;48.116;10.818;2023-08-08T00:04:15;11.90;99.90
41985;DHT22;28319;48.116;10.818;2023-08-08T00:09:18;11.90;99.90
41985;DHT22;28319;48.116;10.818;2023-08-08T00:14:21;11.90;99.90
41985;DHT22;28319;48.116;10.818;2023-08-08T00:19:23;11.90;99.90
41985;DHT22;28319;48.116;10.818;2023-08-08T00:24:26;11.80;99.90
41985;DHT22;28319;48.116;10.818;2023-08-08T00:29:28;11.80;99.90
41985;DHT22;28319;48.116;10.818;2023-08-08T00:34:30;11.70;99.90
41985;DHT22;28319;48.116;10.818;2023-08-08T00:39:34;11.70;99.90
41985;DHT22;28319;48.116;10.818;2023-08-08T00:44:35;11.60;99.90
41985;DHT22;28319;48.116;10.818;2023-08-08T00:49:38;11.60;99.90
41985;DHT22;28319;48.116;10.818;2023-08-08T00:54:41;11.60;99.90
41985;DHT22;28319;48.116;10.818;2023-08-08T00:59:43;11.60;99.90
41985;DHT22;28319;48.116;10.818;2023-08-08T01:04:45;11.50;99.90
41985;DHT22;28319;48.116;10.818;2023-08-08T01:09:55;11.50;99.90
41985;DHT22;28319;48.116;10.818;2023-08-08T01:14:57;11.30;99.90
41985;DHT22;28319;48.116;10.818;2023-08-08T01:19:59;11.20;99.90
41985;DHT22;28319;48.116;10.818;2023-08-08T01:25:04;11.10;99.90
41985;DHT22;28319;48.116;10.818;2023-08-08T01:30:07;11.10;99.90
41985;DHT22;28319;48.116;10.818;2023-08-08T01:35:10;11.10;99.90
41985;DHT22;28319;48.116;10.818;2023-08-08T01:40:16;11.00;99.90
41985;DHT22;28319;48.116;10.818;2023-08-08T01:45:21;10.90;99.90
41985;DHT22;28319;48.116;10.818;2023-08-08T01:50:25;10.90;99.90
41985;DHT22;28319;48.116;10.818;2023-08-08T01:55:29;10.90;99.90
41985;DHT22;28319;48.116;10.818;2023-08-08T02:00:31;10.80;99.90
41985;DHT22;28319;48.116;10.818;2023-08-08T02:05:33;10.80;99.90
41985;DHT22;28319;48.116;10.818;2023-08-08T02:10:39;10.70;99.90
41985;DHT22;28319;48.116;10.818;2023-08-08T02:15:41;10.70;99.90
41985;DHT22;28319;48.116;10.818;2023-08-08T02:20:43;10.70;99.90
41985;DHT22;28319;48.116;10.818;2023-08-08T02:25:47;10.70;99.90
41985;DHT22;28319;48.116;10.818;2023-08-08T02:30:49;10.70;99.90
41985;DHT22;28319;48.116;10.818;2023-08-08T02:35:51;10.70;99.90
41985;DHT22;28319;48.116;10.818;2023-08-08T02:40:54;10.70;99.90
41985;DHT22;28319;48.116;10.818;2023-08-08T02:45:56;10.80;99.90
41985;DHT22;28319;48.116;10.818;2023-08-08T02:50:58;10.70;99.90
41985;DHT22;28319;48.116;10.818;2023-08-08T02:56:01;10.80;99.90
41985;DHT22;28319;48.116;10.818;2023-08-08T03:01:04;10.60;99.90
41985;DHT22;28319;48.116;10.818;2023-08-08T03:06:06;10.80;99.90
41985;DHT22;28319;48.116;10.818;2023-08-08T03:11:09;10.80;99.90
41985;DHT22;28319;48.116;10.818;2023-08-08T03:16:11;10.80;99.90
41985;DHT22;28319;48.116;10.818;2023-08-08T03:21:13;10.90;99.90
41985;DHT22;28319;48.116;10.818;2023-08-08T03:26:17;10.90;99.90
41985;DHT22;28319;48.116;10.818;2023-08-08T03:31:19;10.90;99.90
41985;DHT22;28319;48.116;10.818;2023-08-08T03:36:21;11.00;99.90
41985;DHT22;28319;48.116;10.818;2023-08-08T03:41:25;11.00;99.90
41985;DHT22;28319;48.116;10.818;2023-08-08T03:46:27;11.00;99.90
41985;DHT22;28319;48.116;10.818;2023-08-08T03:51:29;11.00;99.90
41985;DHT22;28319;48.116;10.818;2023-08-08T03:56:32;11.10;99.90
41985;DHT22;28319;48.116;10.818;2023-08-08T04:01:34;11.10;99.90
41985;DHT22;28319;48.116;10.818;2023-08-08T04:06:38;11.10;99.90
41985;DHT22;28319;48.116;10.818;2023-08-08T04:11:42;11.00;99.90
41985;DHT22;28319;48.116;10.818;2023-08-08T04:16:44;11.10;99.90
41985;DHT22;28319;48.116;10.818;2023-08-08T04:21:46;11.10;99.90
41985;DHT22;28319;48.116;10.818;2023-08-08T04:26:49;11.10;99.90
41985;DHT22;28319;48.116;10.818;2023-08-08T04:31:51;11.10;99.90
41985;DHT22;28319;48.116;10.818;2023-08-08T04:36:53;11.20;99.90
41985;DHT22;28319;48.116;10.818;2023-08-08T04:41:57;11.20;99.90
41985;DHT22;28319;48.116;10.818;2023-08-08T04:46:59;11.30;99.90
41985;DHT22;28319;48.116;10.818;2023-08-08T04:52:01;11.30;99.90
41985;DHT22;28319;48.116;10.818;2023-08-08T04:57:05;11.30;99.90
41985;DHT22;28319;48.116;10.818;2023-08-08T05:02:08;11.30;99.90
41985;DHT22;28319;48.116;10.818;2023-08-08T05:07:10;11.30;99.90
41985;DHT22;28319;48.116;10.818;2023-08-08T05:12:13;11.30;99.90
41985;DHT22;28319;48.116;10.818;2023-08-08T05:17:15;11.30;99.90
41985;DHT22;28319;48.116;10.818;2023-08-08T05:22:17;11.30;99.90
41985;DHT22;28319;48.116;10.818;2023-08-08T05:27:21;11.30;99.90
41985;DHT22;28319;48.116;10.818;2023-08-08T05:32:23;11.30;99.90
41985;DHT22;28319;48.116;10.818;2023-08-08T05:37:25;11.40;99.90
41985;DHT22;28319;48.116;10.818;2023-08-08T05:42:28;11.50;99.90
41985;DHT22;28319;48.116;10.818;2023-08-08T05:47:32;11.60;99.90
41985;DHT22;28319;48.116;10.818;2023-08-08T05:52:34;11.80;99.90
41985;DHT22;28319;48.116;10.818;2023-08-08T05:57:38;11.90;99.90
41985;DHT22;28319;48.116;10.818;2023-08-08T06:02:39;12.10;99.90
41985;DHT22;28319;48.116;10.818;2023-08-08T06:07:41;12.20;99.90
41985;DHT22;28319;48.116;10.818;2023-08-08T06:12:45;12.30;99.90
41985;DHT22;28319;48.116;10.818;2023-08-08T06:17:47;12.40;99.90
41985;DHT22;28319;48.116;10.818;2023-08-08T06:22:49;12.50;99.90
41985;DHT22;28319;48.116;10.818;2023-08-08T06:27:52;12.60;99.90
41985;DHT22;28319;48.116;10.818;2023-08-08T06:32:54;12.90;99.90
41985;DHT22;28319;48.116;10.818;2023-08-08T06:37:56;13.00;99.90
41985;DHT22;28319;48.116;10.818;2023-08-08T06:43:00;13.20;99.90
41985;DHT22;28319;48.116;10.818;2023-08-08T06:48:02;13.30;99.90
41985;DHT22;28319;48.116;10.818;2023-08-08T06:53:05;13.40;99.90
41985;DHT22;28319;48.116;10.818;2023-08-08T06:58:08;13.60;99.90
41985;DHT22;28319;48.116;10.818;2023-08-08T07:03:10;13.70;99.90
41985;DHT22;28319;48.116;10.818;2023-08-08T07:08:12;13.90;99.90
41985;DHT22;28319;48.116;10.818;2023-08-08T07:13:16;14.10;99.90
41985;DHT22;28319;48.116;10.818;2023-08-08T07:18:18;14.20;99.90
41985;DHT22;28319;48.116;10.818;2023-08-08T07:23:20;14.30;99.90
41985;DHT22;28319;48.116;10.818;2023-08-08T07:28:24;14.50;99.90
41985;DHT22;28319;48.116;10.818;2023-08-08T07:33:26;14.70;99.90
41985;DHT22;28319;48.116;10.818;2023-08-08T07:38:28;14.70;99.90
41985;DHT22;28319;48.116;10.818;2023-08-08T07:43:31;14.80;99.90
41985;DHT22;28319;48.116;10.818;2023-08-08T07:48:34;14.90;99.90
41985;DHT22;28319;48.116;10.818;2023-08-08T07:53:36;15.10;99.90
41985;DHT22;28319;48.116;10.818;2023-08-08T07:58:39;15.20;99.90
41985;DHT22;28319;48.116;10.818;2023-08-08T08:03:41;15.40;99.90
41985;DHT22;28319;48.116;10.818;2023-08-08T08:08:43;15.40;99.90
41985;DHT22;28319;48.116;10.818;2023-08-08T08:13:47;15.60;99.90
41985;DHT22;28319;48.116;10.818;2023-08-08T08:18:49;15.70;99.90
41985;DHT22;28319;48.116;10.818;2023-08-08T08:23:51;15.90;99.90
41985;DHT22;28319;48.116;10.818;2023-08-08T08:28:54;16.00;99.90
41985;DHT22;28319;48.116;10.818;2023-08-08T08:33:56;16.10;99.90
41985;DHT22;28319;48.116;10.818;2023-08-08T08:38:58;16.30;99.90
41985;DHT22;28319;48.116;10.818;2023-08-08T08:44:03;16.40;99.90
41985;DHT22;28319;48.116;10.818;2023-08-08T08:49:06;16.40;99.90
41985;DHT22;28319;48.116;10.818;2023-08-08T08:54:10;16.40;99.90
41985;DHT22;28319;48.116;10.818;2023-08-08T08:59:13;16.50;99.90
41985;DHT22;28319;48.116;10.818;2023-08-08T09:04:16;16.60;99.90
41985;DHT22;28319;48.116;10.818;2023-08-08T09:09:20;16.70;99.90
41985;DHT22;28319;48.116;10.818;2023-08-08T09:14:26;16.80;99.90
41985;DHT22;28319;48.116;10.818;2023-08-08T09:19:28;17.00;99.90
41985;DHT22;28319;48.116;10.818;2023-08-08T09:24:30;17.20;99.90
41985;DHT22;28319;48.116;10.818;2023-08-08T09:29:34;17.30;99.90
41985;DHT22;28319;48.116;10.818;2023-08-08T09:34:36;17.50;99.60
41985;DHT22;28319;48.116;10.818;2023-08-08T09:39:38;17.70;99.90
41985;DHT22;28319;48.116;10.818;2023-08-08T09:44:42;17.90;97.90
41985;DHT22;28319;48.116;10.818;2023-08-08T09:49:45;18.00;98.10
41985;DHT22;28319;48.116;10.818;2023-08-08T09:54:47;18.20;98.10
41985;DHT22;28319;48.116;10.818;2023-08-08T09:59:52;18.30;98.30
41985;DHT22;28319;48.116;10.818;2023-08-08T10:04:55;18.60;97.00
41985;DHT22;28319;48.116;10.818;2023-08-08T10:09:59;18.50;97.30
41985;DHT22;28319;48.116;10.818;2023-08-08T10:15:03;18.60;96.50
41985;DHT22;28319;48.116;10.818;2023-08-08T10:20:08;18.80;96.60
41985;DHT22;28319;48.116;10.818;2023-08-08T10:25:18;19.00;96.60
41985;DHT22;28319;48.116;10.818;2023-08-08T10:30:22;19.20;95.70
41985;DHT22;28319;48.116;10.818;2023-08-08T10:35:35;19.50;95.50
41985;DHT22;28319;48.116;10.818;2023-08-08T10:40:42;19.70;95.70
41985;DHT22;28319;48.116;10.818;2023-08-08T10:45:47;19.70;95.10
41985;DHT22;28319;48.116;10.818;2023-08-08T10:50:49;19.90;95.70
41985;DHT22;28319;48.116;10.818;2023-08-08T10:55:57;20.00;94.50
41985;DHT22;28319;48.116;10.818;2023-08-08T11:01:01;20.20;94.30
41985;DHT22;28319;48.116;10.818;2023-08-08T11:06:06;20.10;95.20
41985;DHT22;28319;48.116;10.818;2023-08-08T11:11:09;20.50;94.10
41985;DHT22;28319;48.116;10.818;2023-08-08T11:16:14;20.60;93.40
41985;DHT22;28319;48.116;10.818;2023-08-08T11:21:16;20.70;93.60
41985;DHT22;28319;48.116;10.818;2023-08-08T11:26:18;20.60;93.10
41985;DHT22;28319;48.116;10.818;2023-08-08T11:31:22;21.10;94.30
41985;DHT22;28319;48.116;10.818;2023-08-08T11:36:25;21.30;93.30
41985;DHT22;28319;48.116;10.818;2023-08-08T11:41:27;21.00;93.00
41985;DHT22;28319;48.116;10.818;2023-08-08T11:46:31;21.50;93.00
41985;DHT22;28319;48.116;10.818;2023-08-08T11:51:34;21.60;91.20
41985;DHT22;28319;48.116;10.818;2023-08-08T11:56:36;21.50;92.30
41985;DHT22;28319;48.116;10.818;2023-08-08T12:01:41;21.40;92.30
41985;DHT22;28319;48.116;10.818;2023-08-08T12:06:44;21.40;91.70
41985;DHT22;28319;48.116;10.818;2023-08-08T12:11:46;21.40;91.40
41985;DHT22;28319;48.116;10.818;2023-08-08T12:16:50;21.30;90.50
41985;DHT22;28319;48.116;10.818;2023-08-08T12:21:52;21.00;91.50
41985;DHT22;28319;48.116;10.818;2023-08-08T12:26:54;21.40;91.50
41985;DHT22;28319;48.116;10.818;2023-08-08T12:31:58;21.50;91.90
41985;DHT22;28319;48.116;10.818;2023-08-08T12:37:00;21.70;91.40
41985;DHT22;28319;48.116;10.818;2023-08-08T12:42:02;22.40;91.30
41985;DHT22;28319;48.116;10.818;2023-08-08T12:47:06;22.20;91.70
41985;DHT22;28319;48.116;10.818;2023-08-08T12:52:08;21.60;91.80
41985;DHT22;28319;48.116;10.818;2023-08-08T12:57:10;22.00;90.80
41985;DHT22;28319;48.116;10.818;2023-08-08T13:02:14;21.90;90.60
41985;DHT22;28319;48.116;10.818;2023-08-08T13:07:17;21.90;89.90
41985;DHT22;28319;48.116;10.818;2023-08-08T13:12:19;22.20;91.10
41985;DHT22;28319;48.116;10.818;2023-08-08T13:17:23;22.40;89.40
41985;DHT22;28319;48.116;10.818;2023-08-08T13:22:25;22.40;90.00
41985;DHT22;28319;48.116;10.818;2023-08-08T13:27:27;21.90;90.30
41985;DHT22;28319;48.116;10.818;2023-08-08T13:32:30;22.00;90.40
41985;DHT22;28319;48.116;10.818;2023-08-08T13:37:32;22.10;90.20
41985;DHT22;28319;48.116;10.818;2023-08-08T13:42:34;22.30;89.70
41985;DHT22;28319;48.116;10.818;2023-08-08T13:47:38;22.80;90.20
41985;DHT22;28319;48.116;10.818;2023-08-08T13:52:40;22.80;87.00
41985;DHT22;28319;48.116;10.818;2023-08-08T13:57:42;22.60;90.20
41985;DHT22;28319;48.116;10.818;2023-08-08T14:02:46;22.20;89.70
41985;DHT22;28319;48.116;10.818;2023-08-08T14:07:48;21.80;89.50
41985;DHT22;28319;48.116;10.818;2023-08-08T14:12:50;21.80;90.50
41985;DHT22;28319;48.116;10.818;2023-08-08T14:17:53;21.90;90.90
41985;DHT22;28319;48.116;10.818;2023-08-08T14:22:55;22.20;90.40
41985;DHT22;28319;48.116;10.818;2023-08-08T14:27:57;22.40;91.00
41985;DHT22;28319;48.116;10.818;2023-08-08T14:33:02;22.20;89.80
41985;DHT22;28319;48.116;10.818;2023-08-08T14:38:05;22.10;90.90
41985;DHT22;28319;48.116;10.818;2023-08-08T14:43:07;21.90;90.40
41985;DHT22;28319;48.116;10.818;2023-08-08T14:48:13;21.80;90.50
41985;DHT22;28319;48.116;10.818;2023-08-08T14:53:15;21.40;90.80
41985;DHT22;28319;48.116;10.818;2023-08-08T14:58:17;21.70;90.70
41985;DHT22;28319;48.116;10.818;2023-08-08T15:03:21;21.50;89.90
41985;DHT22;28319;48.116;10.818;2023-08-08T15:08:23;21.30;91.00
41985;DHT22;28319;48.116;10.818;2023-08-08T15:13:26;21.20;91.50
41985;DHT22;28319;48.116;10.818;2023-08-08T15:18:29;21.30;91.50
41985;DHT22;28319;48.116;10.818;2023-08-08T15:23:31;21.30;91.60
41985;DHT22;28319;48.116;10.818;2023-08-08T15:28:33;21.20;92.10
41985;DHT22;28319;48.116;10.818;2023-08-08T15:33:36;21.30;91.60
41985;DHT22;28319;48.116;10.818;2023-08-08T15:38:38;21.30;91.80
41985;DHT22;28319;48.116;10.818;2023-08-08T15:43:40;21.40;92.10
41985;DHT22;28319;48.116;10.818;2023-08-08T15:48:44;21.00;91.80
41985;DHT22;28319;48.116;10.818;2023-08-08T15:53:46;21.00;91.90
41985;DHT22;28319;48.116;10.818;2023-08-08T15:58:48;21.00;92.30
41985;DHT22;28319;48.116;10.818;2023-08-08T16:03:51;20.90;92.30
41985;DHT22;28319;48.116;10.818;2023-08-08T16:08:53;20.70;92.40
41985;DHT22;28319;48.116;10.818;2023-08-08T16:13:55;20.70;92.30
41985;DHT22;28319;48.116;10.818;2023-08-08T16:18:59;20.60;92.90
41985;DHT22;28319;48.116;10.818;2023-08-08T16:24:01;20.60;93.20
41985;DHT22;28319;48.116;10.818;2023-08-08T16:29:03;20.50;93.20
41985;DHT22;28319;48.116;10.818;2023-08-08T16:34:08;20.50;93.10
41985;DHT22;28319;48.116;10.818;2023-08-08T16:39:10;20.40;93.20
41985;DHT22;28319;48.116;10.818;2023-08-08T16:44:13;20.30;92.90
41985;DHT22;28319;48.116;10.818;2023-08-08T16:49:16;20.20;93.60
41985;DHT22;28319;48.116;10.818;2023-08-08T16:54:18;20.20;94.00
41985;DHT22;28319;48.116;10.818;2023-08-08T16:59:21;20.30;94.20
41985;DHT22;28319;48.116;10.818;2023-08-08T17:04:25;20.10;94.50
41985;DHT22;28319;48.116;10.818;2023-08-08T17:09:26;20.10;94.70
41985;DHT22;28319;48.116;10.818;2023-08-08T17:14:28;20.20;95.10
41985;DHT22;28319;48.116;10.818;2023-08-08T17:19:32;20.10;94.10
41985;DHT22;28319;48.116;10.818;2023-08-08T17:24:34;20.00;94.10
41985;DHT22;28319;48.116;10.818;2023-08-08T17:29:36;19.80;94.20
41985;DHT22;28319;48.116;10.818;2023-08-08T17:34:40;19.80;94.60
41985;DHT22;28319;48.116;10.818;2023-08-08T17:39:42;19.70;95.30
41985;DHT22;28319;48.116;10.818;2023-08-08T17:44:44;19.60;95.00
41985;DHT22;28319;48.116;10.818;2023-08-08T17:49:47;19.60;95.50
41985;DHT22;28319;48.116;10.818;2023-08-08T17:54:50;19.50;95.30
41985;DHT22;28319;48.116;10.818;2023-08-08T17:59:53;19.40;95.80
41985;DHT22;28319;48.116;10.818;2023-08-08T18:04:56;19.30;96.30
41985;DHT22;28319;48.116;10.818;2023-08-08T18:09:58;19.20;96.00
41985;DHT22;28319;48.116;10.818;2023-08-08T18:15:00;19.10;96.50
41985;DHT22;28319;48.116;10.818;2023-08-08T18:20:06;19.00;97.00
41985;DHT22;28319;48.116;10.818;2023-08-08T18:25:10;18.90;96.80
41985;DHT22;28319;48.116;10.818;2023-08-08T18:30:13;18.70;96.90
41985;DHT22;28319;48.116;10.818;2023-08-08T18:35:18;18.60;97.30
41985;DHT22;28319;48.116;10.818;2023-08-08T18:40:20;18.60;97.70
41985;DHT22;28319;48.116;10.818;2023-08-08T18:45:23;18.50;97.70
41985;DHT22;28319;48.116;10.818;2023-08-08T18:50:26;18.60;97.90
41985;DHT22;28319;48.116;10.818;2023-08-08T18:55:28;18.60;98.00
41985;DHT22;28319;48.116;10.818;2023-08-08T19:00:30;18.60;97.80
41985;DHT22;28319;48.116;10.818;2023-08-08T19:05:33;18.50;97.70
41985;DHT22;28319;48.116;10.818;2023-08-08T19:10:35;18.40;97.70
41985;DHT22;28319;48.116;10.818;2023-08-08T19:15:37;18.30;97.60
41985;DHT22;28319;48.116;10.818;2023-08-08T19:20:41;18.30;98.00
41985;DHT22;28319;48.116;10.818;2023-08-08T19:25:45;18.10;98.10
41985;DHT22;28319;48.116;10.818;2023-08-08T19:30:47;18.00;98.60
41985;DHT22;28319;48.116;10.818;2023-08-08T19:35:51;18.20;98.60
41985;DHT22;28319;48.116;10.818;2023-08-08T19:40:53;18.20;98.60
41985;DHT22;28319;48.116;10.818;2023-08-08T19:45:55;18.20;98.80
41985;DHT22;28319;48.116;10.818;2023-08-08T19:50:58;18.00;98.30
41985;DHT22;28319;48.116;10.818;2023-08-08T19:56:00;18.00;98.80
41985;DHT22;28319;48.116;10.818;2023-08-08T20:01:02;17.90;98.80
41985;DHT22;28319;48.116;10.818;2023-08-08T20:06:06;17.90;99.40
41985;DHT22;28319;48.116;10.818;2023-08-08T20:11:08;17.90;99.10
41985;DHT22;28319;48.116;10.818;2023-08-08T20:16:10;17.70;98.70
41985;DHT22;28319;48.116;10.818;2023-08-08T20:21:13;17.80;99.10
41985;DHT22;28319;48.116;10.818;2023-08-08T20:26:15;17.70;99.30
41985;DHT22;28319;48.116;10.818;2023-08-08T20:31:17;17.70;99.60
41985;DHT22;28319;48.116;10.818;2023-08-08T20:36:21;17.60;99.30
41985;DHT22;28319;48.116;10.818;2023-08-08T20:41:23;17.50;99.00
41985;DHT22;28319;48.116;10.818;2023-08-08T20:46:25;17.40;99.00
41985;DHT22;28319;48.116;10.818;2023-08-08T20:51:28;17.40;99.30
41985;DHT22;28319;48.116;10.818;2023-08-08T20:56:30;17.20;98.90
41985;DHT22;28319;48.116;10.818;2023-08-08T21:01:32;17.30;99.30
41985;DHT22;28319;48.116;10.818;2023-08-08T21:06:36;17.30;99.40
41985;DHT22;28319;48.116;10.818;2023-08-08T21:11:38;17.30;99.50
41985;DHT22;28319;48.116;10.818;2023-08-08T21:16:40;17.40;99.60
41985;DHT22;28319;48.116;10.818;2023-08-08T21:21:43;17.30;99.60
41985;DHT22;28319;48.116;10.818;2023-08-08T21:26:46;17.20;99.50
41985;DHT22;28319;48.116;10.818;2023-08-08T21:31:47;17.00;99.80
41985;DHT22;28319;48.116;10.818;2023-08-08T21:36:51;16.80;99.90
41985;DHT22;28319;48.116;10.818;2023-08-08T21:41:53;16.70;99.90
41985;DHT22;28319;48.116;10.818;2023-08-08T21:46:55;16.80;99.90
41985;DHT22;28319;48.116;10.818;2023-08-08T21:51:58;16.70;99.90
41985;DHT22;28319;48.116;10.818;2023-08-08T21:57:01;16.60;99.90
41985;DHT22;28319;48.116;10.818;2023-08-08T22:02:03;16.40;99.90
41985;DHT22;28319;48.116;10.818;2023-08-08T22:07:08;16.20;99.90
41985;DHT22;28319;48.116;10.818;2023-08-08T22:12:09;16.00;99.90
41985;DHT22;28319;48.116;10.818;2023-08-08T22:17:11;15.80;99.90
41985;DHT22;28319;48.116;10.818;2023-08-08T22:22:15;15.90;99.90
41985;DHT22;28319;48.116;10.818;2023-08-08T22:27:17;15.70;99.90
41985;DHT22;28319;48.116;10.818;2023-08-08T22:32:19;15.70;99.90
41985;DHT22;28319;48.116;10.818;2023-08-08T22:37:23;15.50;99.90
41985;DHT22;28319;48.116;10.818;2023-08-08T22:42:25;15.50;99.90
41985;DHT22;28319;48.116;10.818;2023-08-08T22:47:27;15.50;99.90
41985;DHT22;28319;48.116;10.818;2023-08-08T22:52:30;15.30;99.90
41985;DHT22;28319;48.116;10.818;2023-08-08T22:57:32;15.10;99.90
41985;DHT22;28319;48.116;10.818;2023-08-08T23:02:42;15.00;99.90
41985;DHT22;28319;48.116;10.818;2023-08-08T23:07:44;14.90;99.90
41985;DHT22;28319;48.116;10.818;2023-08-08T23:12:47;15.00;99.90
41985;DHT22;28319;48.116;10.818;2023-08-08T23:17:50;14.90;99.90
41985;DHT22;28319;48.116;10.818;2023-08-08T23:22:52;14.90;99.90
41985;DHT22;28319;48.116;10.818;2023-08-08T23:27:54;14.80;99.90
41985;DHT22;28319;48.116;10.818;2023-08-08T23:32:58;14.80;99.90
41985;DHT22;28319;48.116;10.818;2023-08-08T23:38:00;14.80;99.90
41985;DHT22;28319;48.116;10.818;2023-08-08T23:43:02;14.80;99.90
41985;DHT22;28319;48.116;10.818;2023-08-08T23:48:06;14.80;99.90
41985;DHT22;28319;48.116;10.818;2023-08-08T23:53:08;14.90;99.90
41985;DHT22;28319;48.116;10.818;2023-08-08T23:58:10;14.90;99.90
